createdAt,value
2023-01-11T00:01:00.758Z,6.03
2023-01-11T00:03:30.079Z,8.25
2023-01-11T00:05:59.387Z,6.00
2023-01-11T00:08:28.431Z,7.32
2023-01-11T00:10:56.153Z,7.53
2023-01-11T00:13:30.344Z,6.85
2023-01-11T00:16:05.115Z,7.68
2023-01-11T00:18:33.164Z,7.35
2023-01-11T00:21:05.989Z,9.57
2023-01-11T00:23:37.755Z,6.82
2023-01-11T00:26:11.404Z,8.82
2023-01-11T00:28:39.216Z,7.75
2023-01-11T00:31:07.126Z,9.35
2023-01-11T00:33:35.145Z,7.75
2023-01-11T00:36:02.767Z,5.20
2023-01-11T00:38:51.776Z,6.75
2023-01-11T00:41:40.022Z,10.18
2023-01-11T00:44:28.674Z,7.95
2023-01-11T00:47:15.239Z,9.52
2023-01-11T00:49:43.974Z,8.18
2023-01-11T00:52:11.975Z,9.63
2023-01-11T00:54:40.819Z,8.13
2023-01-11T00:57:08.933Z,7.60
2023-01-11T00:59:40.495Z,7.30
2023-01-11T01:02:09.832Z,8.02
2023-01-11T01:04:38.749Z,6.88
2023-01-11T01:07:07.412Z,6.53
2023-01-11T01:09:35.249Z,8.43
2023-01-11T01:12:03.302Z,7.88
2023-01-11T01:14:33.356Z,6.88
2023-01-11T01:17:04.267Z,7.35
2023-01-11T01:19:32.382Z,6.55
2023-01-11T01:22:00.666Z,6.32
2023-01-11T01:24:29.462Z,10.23
2023-01-11T01:26:58.349Z,4.82
2023-01-11T01:29:26.575Z,7.60
2023-01-11T01:31:54.512Z,8.10
2023-01-11T01:34:22.344Z,10.90
2023-01-11T01:36:50.120Z,7.32
2023-01-11T01:39:17.959Z,6.15
2023-01-11T01:41:45.763Z,9.15
2023-01-11T01:44:51.127Z,7.32
2023-01-11T01:47:22.860Z,6.50
2023-01-11T01:49:51.159Z,6.57
2023-01-11T01:52:19.494Z,7.05
2023-01-11T01:54:49.397Z,6.15
2023-01-11T01:57:23.888Z,5.88
2023-01-11T01:59:56.606Z,5.60
2023-01-11T02:02:25.662Z,7.60
2023-01-11T02:04:56.972Z,7.57
2023-01-11T02:07:33.353Z,5.45
2023-01-11T02:10:05.108Z,8.13
2023-01-11T02:12:42.156Z,7.03
2023-01-11T02:15:11.289Z,6.00
2023-01-11T02:17:43.220Z,6.32
2023-01-11T02:20:29.395Z,7.20
2023-01-11T02:23:27.732Z,6.32
2023-01-11T02:28:42.307Z,5.45
2023-01-11T02:31:14.092Z,8.15
2023-01-11T02:33:47.958Z,8.20
2023-01-11T02:36:44.575Z,7.07
2023-01-11T02:39:55.197Z,5.22
2023-01-11T02:42:55.601Z,8.52
2023-01-11T02:45:52.364Z,5.75
2023-01-11T02:48:36.654Z,6.55
2023-01-11T02:51:52.593Z,5.40
2023-01-11T02:54:23.196Z,7.25
2023-01-11T02:56:56.321Z,4.95
2023-01-11T02:59:35.278Z,9.05
2023-01-11T03:02:03.564Z,5.75
2023-01-11T03:04:32.328Z,5.25
2023-01-11T03:07:21.770Z,6.30
2023-01-11T03:10:12.427Z,7.05
2023-01-11T03:13:04.759Z,7.82
2023-01-11T03:15:51.143Z,7.43
2023-01-11T03:18:28.423Z,5.50
2023-01-11T03:23:56.089Z,4.63
2023-01-11T03:27:01.590Z,6.75
2023-01-11T03:29:39.874Z,4.85
2023-01-11T03:32:30.414Z,3.97
2023-01-11T03:35:16.337Z,5.82
2023-01-11T03:38:32.960Z,5.60
2023-01-11T03:41:08.394Z,4.97
2023-01-11T03:43:39.210Z,4.63
2023-01-11T03:46:18.922Z,6.22
2023-01-11T03:48:54.054Z,5.85
2023-01-11T03:51:28.052Z,5.95
2023-01-11T03:54:00.617Z,5.68
2023-01-11T03:56:36.995Z,4.28
2023-01-11T03:59:05.153Z,5.70
2023-01-11T04:01:33.075Z,4.72
2023-01-11T04:04:00.859Z,6.55
2023-01-11T04:06:29.638Z,7.18
2023-01-11T04:08:57.333Z,5.60
2023-01-11T04:11:25.014Z,4.68
2023-01-11T04:13:52.840Z,4.38
2023-01-11T04:16:20.636Z,4.28
2023-01-11T04:18:48.280Z,4.72
2023-01-11T04:21:16.469Z,7.30
2023-01-11T04:23:44.285Z,4.45
2023-01-11T04:26:12.076Z,4.13
2023-01-11T04:28:39.916Z,5.53
2023-01-11T04:31:07.706Z,4.50
2023-01-11T04:33:35.591Z,5.72
2023-01-11T04:36:08.178Z,5.55
2023-01-11T04:38:36.174Z,5.25
2023-01-11T04:41:33.548Z,5.07
2023-01-11T04:44:01.264Z,3.90
2023-01-11T04:46:29.363Z,6.00
2023-01-11T04:48:57.054Z,5.32
2023-01-11T04:51:25.163Z,4.15
2023-01-11T04:53:53.105Z,4.55
2023-01-11T04:56:20.891Z,7.85
2023-01-11T04:58:48.582Z,5.10
2023-01-11T05:01:18.473Z,6.20
2023-01-11T05:03:46.617Z,7.45
2023-01-11T05:06:15.633Z,4.45
2023-01-11T05:08:47.702Z,4.57
2023-01-11T05:11:18.983Z,5.55
2023-01-11T05:13:47.610Z,4.53
2023-01-11T05:16:24.325Z,5.53
2023-01-11T05:18:59.571Z,5.35
2023-01-11T05:21:31.387Z,8.20
2023-01-11T05:24:01.882Z,4.72
2023-01-11T05:26:34.592Z,4.07
2023-01-11T05:29:05.833Z,12.95
2023-01-11T05:31:36.201Z,29.25
2023-01-11T05:34:06.986Z,24.05
2023-01-11T05:36:36.200Z,22.60
2023-01-11T05:39:05.361Z,17.95
2023-01-11T05:41:33.669Z,14.45
2023-01-11T05:44:20.708Z,16.83
2023-01-11T05:46:48.616Z,9.87
2023-01-11T05:49:17.162Z,9.70
2023-01-11T05:51:45.251Z,8.60
2023-01-11T05:54:16.269Z,8.90
2023-01-11T05:56:44.530Z,8.55
2023-01-11T05:59:12.646Z,7.35
2023-01-11T06:01:42.315Z,8.65
2023-01-11T06:04:10.974Z,8.05
2023-01-11T06:06:39.246Z,7.95
2023-01-11T06:09:07.467Z,6.70
2023-01-11T06:11:35.217Z,10.98
2023-01-11T06:14:03.057Z,7.88
2023-01-11T06:16:30.875Z,8.95
2023-01-11T06:18:58.642Z,11.00
2023-01-11T06:21:26.363Z,7.65
2023-01-11T06:23:54.755Z,16.10
2023-01-11T06:26:23.519Z,20.00
2023-01-11T06:28:51.599Z,14.55
2023-01-11T06:31:19.934Z,19.40
2023-01-11T06:33:48.070Z,20.65
2023-01-11T06:36:16.393Z,20.20
2023-01-11T06:38:45.085Z,22.02
2023-01-11T06:41:13.774Z,15.95
2023-01-11T06:43:42.596Z,11.95
2023-01-11T06:46:15.453Z,10.93
2023-01-11T06:48:44.214Z,10.88
2023-01-11T06:51:13.127Z,10.48
2023-01-11T06:53:42.502Z,8.45
2023-01-11T06:56:13.891Z,9.48
2023-01-11T06:58:41.670Z,7.93
2023-01-11T07:01:09.697Z,9.57
2023-01-11T07:03:40.184Z,9.30
2023-01-11T07:06:08.082Z,8.73
2023-01-11T07:08:35.892Z,6.88
2023-01-11T07:11:04.154Z,8.98
2023-01-11T07:13:31.876Z,7.15
2023-01-11T07:15:59.787Z,5.55
2023-01-11T07:18:27.611Z,7.05
2023-01-11T07:20:55.398Z,6.50
2023-01-11T07:23:23.001Z,7.80
2023-01-11T07:25:50.744Z,8.43
2023-01-11T07:28:19.329Z,6.07
2023-01-11T07:31:02.671Z,6.93
2023-01-11T07:33:30.428Z,6.68
2023-01-11T07:36:00.783Z,8.48
2023-01-11T07:38:29.619Z,6.63
2023-01-11T07:40:57.448Z,7.63
2023-01-11T07:43:25.259Z,5.40
2023-01-11T07:45:53.515Z,6.35
2023-01-11T07:48:26.478Z,9.15
2023-01-11T07:50:55.156Z,7.43
2023-01-11T07:53:26.408Z,9.35
2023-01-11T07:55:57.576Z,6.95
2023-01-11T07:58:25.472Z,8.07
2023-01-11T08:00:53.284Z,7.07
2023-01-11T08:03:21.432Z,7.18
2023-01-11T08:05:52.795Z,9.90
2023-01-11T08:08:21.593Z,9.48
2023-01-11T08:11:12.482Z,10.38
2023-01-11T08:13:59.016Z,8.25
2023-01-11T08:16:28.491Z,7.22
2023-01-11T08:18:56.386Z,11.02
2023-01-11T08:21:24.038Z,7.95
2023-01-11T08:23:54.423Z,7.82
2023-01-11T08:26:26.616Z,6.05
2023-01-11T08:28:55.452Z,9.40
2023-01-11T08:31:23.614Z,6.32
2023-01-11T08:33:51.757Z,10.20
2023-01-11T08:36:19.624Z,12.55
2023-01-11T08:38:47.727Z,9.68
2023-01-11T08:41:15.451Z,6.65
2023-01-11T08:43:43.568Z,10.88
2023-01-11T08:46:11.780Z,9.20
2023-01-11T08:48:39.598Z,8.98
2023-01-11T08:51:07.490Z,8.25
2023-01-11T08:53:35.394Z,6.65
2023-01-11T08:56:03.376Z,9.32
2023-01-11T08:58:32.674Z,5.32
2023-01-11T09:01:03.097Z,10.00
2023-01-11T09:03:31.294Z,8.50
2023-01-11T09:05:58.988Z,7.97
2023-01-11T09:08:27.874Z,11.43
2023-01-11T09:11:00.228Z,4.57
2023-01-11T09:13:28.299Z,9.25
2023-01-11T09:15:57.674Z,7.05
2023-01-11T09:18:27.212Z,9.02
2023-01-11T09:20:55.310Z,10.10
2023-01-11T09:23:23.193Z,10.23
2023-01-11T09:25:51.155Z,8.10
2023-01-11T09:28:18.918Z,8.90
2023-01-11T09:30:46.652Z,6.80
2023-01-11T09:33:14.871Z,7.40
2023-01-11T09:35:42.969Z,8.48
2023-01-11T09:38:10.752Z,8.68
2023-01-11T09:41:09.276Z,6.93
2023-01-11T09:43:45.775Z,8.95
2023-01-11T09:46:14.570Z,9.35
2023-01-11T09:48:47.409Z,10.13
2023-01-11T09:51:16.633Z,9.15
2023-01-11T09:53:50.934Z,8.40
2023-01-11T09:56:25.691Z,9.43
2023-01-11T09:58:59.615Z,8.93
2023-01-11T10:01:37.997Z,11.23
2023-01-11T10:04:20.724Z,8.05
2023-01-11T10:06:48.558Z,9.25
2023-01-11T10:18:28.619Z,7.57
2023-01-11T10:19:34.910Z,13.95
2023-01-11T10:22:12.292Z,13.73
2023-01-11T10:24:45.670Z,12.52
2023-01-11T10:27:32.711Z,13.32
2023-01-11T10:30:24.226Z,11.50
2023-01-11T10:33:01.798Z,12.55
2023-01-11T10:36:06.135Z,9.48
2023-01-11T10:39:14.055Z,12.00
2023-01-11T10:41:52.553Z,10.10
2023-01-11T10:44:31.515Z,13.93
2023-01-11T10:47:02.402Z,15.13
2023-01-11T10:50:09.112Z,11.82
2023-01-11T10:52:48.108Z,11.57
2023-01-11T10:55:25.038Z,11.13
2023-01-11T10:58:04.816Z,12.55
2023-01-11T11:00:45.134Z,12.32
2023-01-11T11:03:27.370Z,9.75
2023-01-11T11:06:24.962Z,9.88
2023-01-11T11:09:01.094Z,12.60
2023-01-11T11:11:58.723Z,11.00
2023-01-11T11:14:51.692Z,11.30
2023-01-11T11:17:20.330Z,14.93
2023-01-11T11:19:48.287Z,19.38
2023-01-11T11:22:16.250Z,14.55
2023-01-11T11:25:03.892Z,15.35
2023-01-11T11:30:12.445Z,18.73
2023-01-11T11:32:54.953Z,14.95
2023-01-11T11:35:34.310Z,12.82
2023-01-11T11:38:02.587Z,13.00
2023-01-11T11:40:33.993Z,11.32
2023-01-11T11:43:20.806Z,15.35
2023-01-11T11:45:54.485Z,15.23
2023-01-11T11:48:24.058Z,12.75
2023-01-11T11:50:58.448Z,11.60
2023-01-11T11:53:47.226Z,13.02
2023-01-11T11:56:17.085Z,11.73
2023-01-11T11:58:46.184Z,12.57
2023-01-11T12:01:27.828Z,12.02
2023-01-11T12:04:03.797Z,13.95
2023-01-11T12:06:31.851Z,9.85
2023-01-11T12:09:03.007Z,12.95
2023-01-11T12:11:38.052Z,8.90
2023-01-11T12:14:12.864Z,10.18
2023-01-11T12:16:42.733Z,8.15
2023-01-11T12:19:35.208Z,12.43
2023-01-11T12:22:29.477Z,11.20
2023-01-11T12:25:28.914Z,11.30
2023-01-11T12:28:28.354Z,12.10
2023-01-11T12:31:10.409Z,14.63
2023-01-11T12:34:12.427Z,13.57
2023-01-11T12:37:01.928Z,15.18
2023-01-11T12:39:42.576Z,13.88
2023-01-11T12:42:19.390Z,13.20
2023-01-11T12:44:53.045Z,11.48
2023-01-11T12:48:04.524Z,13.60
2023-01-11T12:50:43.359Z,13.20
2023-01-11T12:53:36.531Z,12.27
2023-01-11T12:57:09.189Z,11.30
2023-01-11T13:00:01.660Z,13.27
2023-01-11T13:02:50.486Z,11.85
2023-01-11T13:05:56.154Z,13.35
2023-01-11T13:09:01.733Z,12.57
2023-01-11T13:11:59.056Z,12.48
2023-01-11T13:14:35.994Z,9.38
2023-01-11T13:17:21.357Z,19.13
2023-01-11T13:20:07.881Z,15.80
2023-01-11T13:22:40.926Z,16.48
2023-01-11T13:25:21.405Z,17.27
2023-01-11T13:27:51.447Z,12.77
2023-01-11T13:30:20.551Z,14.10
2023-01-11T13:33:14.373Z,13.52
2023-01-11T13:35:50.242Z,13.07
2023-01-11T13:38:34.672Z,16.20
2023-01-11T13:41:34.852Z,19.17
2023-01-11T13:44:08.476Z,17.35
2023-01-11T13:47:14.087Z,18.15
2023-01-11T13:49:51.839Z,13.60
2023-01-11T13:52:27.974Z,10.52
2023-01-11T13:55:04.232Z,9.23
2023-01-11T13:58:01.152Z,13.02
2023-01-11T14:00:41.708Z,7.35
2023-01-11T14:03:31.377Z,6.00
2023-01-11T14:06:06.451Z,9.13
2023-01-11T14:08:49.338Z,7.05
2023-01-11T14:11:17.157Z,6.07
2023-01-11T14:14:09.431Z,8.18
2023-01-11T14:16:59.240Z,9.68
2023-01-11T14:19:38.497Z,9.75
2023-01-11T14:22:34.701Z,6.82
2023-01-11T14:25:15.429Z,7.65
2023-01-11T14:28:01.288Z,5.88
2023-01-11T14:30:53.176Z,7.30
2023-01-11T14:33:44.106Z,7.63
2023-01-11T14:36:58.211Z,6.85
2023-01-11T14:40:07.399Z,8.90
2023-01-11T14:42:50.206Z,7.43
2023-01-11T14:45:43.643Z,7.82
2023-01-11T14:48:34.702Z,6.53
2023-01-11T14:51:33.212Z,7.65
2023-01-11T14:54:31.219Z,6.95
2023-01-11T14:57:00.513Z,6.30
2023-01-11T14:59:31.277Z,6.13
2023-01-11T15:02:05.511Z,9.05
2023-01-11T15:05:00.265Z,9.23
2023-01-11T15:07:41.024Z,7.80
2023-01-11T15:10:30.437Z,8.20
2023-01-11T15:12:58.742Z,5.88
2023-01-11T15:15:47.663Z,5.85
2023-01-11T15:18:18.859Z,6.60
2023-01-11T15:21:06.809Z,6.47
2023-01-11T15:23:37.951Z,5.78
2023-01-11T15:26:11.025Z,7.07
2023-01-11T15:28:51.755Z,8.23
2023-01-11T15:31:34.529Z,6.93
2023-01-11T15:34:05.782Z,4.97
2023-01-11T15:36:58.636Z,9.95
2023-01-11T15:39:51.360Z,8.93
2023-01-11T15:42:50.141Z,9.43
2023-01-11T15:46:03.839Z,7.22
2023-01-11T15:49:09.264Z,7.78
2023-01-11T15:51:52.096Z,7.57
2023-01-11T15:54:54.076Z,6.82
2023-01-11T15:57:40.092Z,9.27
2023-01-11T16:00:33.866Z,8.35
2023-01-11T16:03:20.671Z,6.05
2023-01-11T16:06:26.024Z,9.00
2023-01-11T16:09:06.841Z,4.43
2023-01-11T16:12:00.705Z,4.45
2023-01-11T16:15:12.526Z,4.70
2023-01-11T16:17:42.041Z,8.35
2023-01-11T16:20:33.501Z,6.75
2023-01-11T16:23:04.301Z,6.28
2023-01-11T16:25:37.227Z,6.00
2023-01-11T16:28:06.110Z,6.55
2023-01-11T16:30:34.575Z,9.88
2023-01-11T16:33:15.195Z,10.27
2023-01-11T16:35:43.153Z,9.38
2023-01-11T16:38:18.552Z,9.15
2023-01-11T16:40:50.730Z,11.65
2023-01-11T16:43:25.853Z,12.25
2023-01-11T16:45:55.822Z,11.63
2023-01-11T16:48:25.773Z,12.90
2023-01-11T16:51:07.826Z,12.00
2023-01-11T16:53:40.168Z,9.40
2023-01-11T16:56:13.050Z,9.85
2023-01-11T16:58:41.057Z,9.48
2023-01-11T17:01:14.872Z,9.10
2023-01-11T17:03:49.530Z,10.38
2023-01-11T17:06:22.547Z,7.68
2023-01-11T17:08:53.084Z,7.68
2023-01-11T17:11:42.603Z,11.65
2023-01-11T17:14:24.577Z,12.75
2023-01-11T17:16:59.253Z,9.38
2023-01-11T17:19:35.560Z,7.68
2023-01-11T17:22:22.395Z,10.85
2023-01-11T17:24:59.122Z,8.25
2023-01-11T17:27:35.971Z,10.48
2023-01-11T17:30:05.912Z,13.38
2023-01-11T17:32:42.463Z,10.23
2023-01-11T17:35:22.740Z,10.20
2023-01-11T17:37:58.277Z,10.43
2023-01-11T17:40:32.136Z,9.60
2023-01-11T17:43:40.045Z,13.52
2023-01-11T17:46:10.559Z,10.25
2023-01-11T17:48:55.967Z,11.10
2023-01-11T17:51:33.710Z,10.75
2023-01-11T17:54:01.650Z,10.98
2023-01-11T17:56:32.590Z,10.15
2023-01-11T17:59:33.350Z,11.63
2023-01-11T18:02:10.416Z,11.60
2023-01-11T18:04:40.737Z,9.70
2023-01-11T18:07:19.566Z,7.15
2023-01-11T18:09:57.506Z,9.50
2023-01-11T18:12:32.418Z,10.38
2023-01-11T18:15:02.349Z,9.05
2023-01-11T18:17:35.337Z,12.38
2023-01-11T18:20:26.201Z,10.35
2023-01-11T18:22:53.865Z,10.10
2023-01-11T18:25:24.014Z,11.48
2023-01-11T18:28:12.144Z,11.05
2023-01-11T18:30:47.093Z,12.27
2023-01-11T18:33:22.898Z,11.40
2023-01-11T18:35:53.363Z,10.23
2023-01-11T18:38:30.657Z,9.23
2023-01-11T18:43:49.534Z,8.35
2023-01-11T18:46:20.285Z,13.57
2023-01-11T18:48:48.576Z,10.38
2023-01-11T18:51:41.915Z,9.18
2023-01-11T18:54:16.120Z,12.02
2023-01-11T18:56:43.923Z,10.45
2023-01-11T18:59:11.872Z,13.43
2023-01-11T19:01:54.398Z,10.38
2023-01-11T19:04:27.496Z,11.98
2023-01-11T19:06:55.625Z,13.90
2023-01-11T19:09:23.727Z,14.05
2023-01-11T19:11:52.231Z,12.73
2023-01-11T19:14:21.335Z,13.60
2023-01-11T19:16:51.610Z,13.10
2023-01-11T19:19:19.581Z,15.13
2023-01-11T19:21:47.769Z,12.85
2023-01-11T19:24:17.643Z,11.02
2023-01-11T19:26:45.830Z,15.57
2023-01-11T19:29:17.381Z,16.08
2023-01-11T19:31:52.712Z,12.73
2023-01-11T19:34:25.516Z,15.15
2023-01-11T19:36:56.408Z,14.27
2023-01-11T19:39:24.869Z,16.67
2023-01-11T19:42:04.531Z,15.43
2023-01-11T19:44:39.593Z,13.45
2023-01-11T19:47:13.141Z,11.30
2023-01-11T19:49:44.130Z,14.90
2023-01-11T19:52:19.346Z,15.90
2023-01-11T19:54:47.869Z,13.45
2023-01-11T19:57:21.349Z,14.02
2023-01-11T19:59:52.345Z,12.27
2023-01-11T20:02:22.389Z,9.20
2023-01-11T20:04:50.969Z,9.68
2023-01-11T20:07:18.924Z,10.95
2023-01-11T20:09:49.044Z,12.02
2023-01-11T20:12:20.191Z,9.80
2023-01-11T20:14:48.522Z,10.05
2023-01-11T20:17:22.973Z,7.90
2023-01-11T20:19:54.897Z,10.25
2023-01-11T20:22:24.263Z,10.15
2023-01-11T20:24:53.494Z,9.45
2023-01-11T20:27:21.766Z,9.27
2023-01-11T20:30:02.468Z,10.32
2023-01-11T20:32:41.423Z,9.32
2023-01-11T20:35:13.645Z,10.60
2023-01-11T20:37:44.271Z,9.75
2023-01-11T20:40:14.229Z,8.50
2023-01-11T20:42:43.170Z,11.80
2023-01-11T20:45:38.529Z,13.95
2023-01-11T20:48:35.921Z,11.43
2023-01-11T20:51:04.026Z,11.70
2023-01-11T20:53:32.632Z,13.35
2023-01-11T20:56:07.989Z,14.55
2023-01-11T20:58:38.136Z,10.32
2023-01-11T21:01:10.930Z,14.60
2023-01-11T21:03:39.342Z,13.27
2023-01-11T21:06:15.578Z,14.80
2023-01-11T21:09:00.584Z,18.50
2023-01-11T21:11:32.372Z,20.23
2023-01-11T21:14:08.954Z,16.40
2023-01-11T21:16:44.920Z,16.98
2023-01-11T21:19:23.902Z,15.32
2023-01-11T21:21:57.525Z,16.27
2023-01-11T21:24:27.180Z,17.10
2023-01-11T21:27:08.329Z,14.38
2023-01-11T21:29:51.257Z,12.35
2023-01-11T21:32:19.844Z,13.25
2023-01-11T21:34:51.150Z,13.55
2023-01-11T21:37:25.201Z,10.63
2023-01-11T21:39:58.542Z,13.43
2023-01-11T21:42:26.761Z,10.48
2023-01-11T21:44:58.083Z,10.68
2023-01-11T21:47:32.234Z,11.25
2023-01-11T21:50:03.108Z,11.10
2023-01-11T21:52:35.532Z,8.85
2023-01-11T21:55:04.213Z,12.43
2023-01-11T21:57:32.289Z,8.50
2023-01-11T22:00:05.680Z,11.43
2023-01-11T22:02:53.073Z,9.10
2023-01-11T22:05:21.527Z,10.85
2023-01-11T22:07:56.258Z,9.73
2023-01-11T22:10:28.022Z,9.45
2023-01-11T22:12:58.155Z,11.05
2023-01-11T22:15:28.372Z,11.38
2023-01-11T22:18:02.543Z,9.50
2023-01-11T22:20:31.671Z,11.52
2023-01-11T22:23:08.681Z,9.43
2023-01-11T22:25:41.177Z,14.75
2023-01-11T22:28:09.551Z,21.13
2023-01-11T22:30:37.583Z,15.90
2023-01-11T22:33:07.677Z,15.27
2023-01-11T22:35:45.748Z,14.55
2023-01-11T22:38:25.835Z,10.23
2023-01-11T22:41:05.355Z,10.48
2023-01-11T22:43:33.562Z,10.07
2023-01-11T22:46:04.725Z,8.13
2023-01-11T22:48:35.753Z,7.45
2023-01-11T22:51:09.796Z,10.15
2023-01-11T22:53:49.959Z,8.55
2023-01-11T22:56:32.492Z,7.15
2023-01-11T22:59:12.949Z,9.85
2023-01-11T23:01:52.390Z,6.47
2023-01-11T23:04:33.897Z,8.98
2023-01-11T23:07:05.128Z,6.10
2023-01-11T23:09:44.694Z,7.18
2023-01-11T23:12:34.224Z,9.27
2023-01-11T23:15:05.598Z,7.35
2023-01-11T23:17:34.721Z,6.95
2023-01-11T23:20:08.725Z,6.93
2023-01-11T23:22:39.570Z,7.72
2023-01-11T23:25:11.833Z,7.38
2023-01-11T23:27:47.469Z,7.90
2023-01-11T23:30:23.130Z,7.60
2023-01-11T23:32:54.414Z,8.10
2023-01-11T23:35:22.411Z,7.50
2023-01-11T23:37:52.333Z,8.10
2023-01-11T23:40:20.522Z,10.05
2023-01-11T23:42:52.383Z,7.75
2023-01-11T23:45:20.779Z,8.60
2023-01-11T23:47:49.800Z,8.23
2023-01-11T23:50:20.263Z,7.32
2023-01-11T23:52:48.023Z,8.48
2023-01-11T23:55:16.008Z,7.40
2023-01-11T23:58:03.686Z,8.05
